Time;durP1;ratioP1;P1;durP2;ratioP2;P2;SDS_P1;SDS_P2;PMS_P1;PMS_P2;Temp;Humidity;BMP_temperature;BMP_pressure;BME280_temperature;BME280_humidity;BME280_pressure;Samples;Min_cycle;Max_cycle;Signal;HPM_P1;HPM_P2
2023/04/04 00:00:43;;;;;;;;;;;;;;;2.51;63.41;102925.50;5027297;28;19925;-63
2023/04/04 00:03:08;;;;;;;;;;;;;;;2.48;63.56;102924.72;5025139;28;20458;-63
2023/04/04 00:05:34;;;;;;;;;;;;;;;2.46;63.59;102925.72;5027976;28;19921;-63
2023/04/04 00:08:00;;;;;;;;;;;;;;;2.43;63.66;102934.56;5028560;28;20433;-63
2023/04/04 00:10:26;;;;;;;;;;;;;;;2.41;63.90;102931.16;5028383;28;19956;-63
2023/04/04 00:12:51;;;;;;;;;;;;;;;2.41;64.10;102936.41;5023356;28;19920;-63
2023/04/04 00:15:16;;;;;;;;;;;;;;;2.39;64.36;102937.38;5028904;28;19921;-63
2023/04/04 00:17:42;;;;;;;;;;;;;;;2.39;64.36;102937.38;5027857;28;19928;-63
2023/04/04 00:20:08;;;;;;;;;;;;;;;2.37;64.32;102929.59;5024036;28;19917;-64
2023/04/04 00:22:33;;;;;;;;;;;;;;;2.37;64.59;102928.75;5026061;28;19926;-63
2023/04/04 00:24:58;;;;;;;;;;;;;;;2.37;64.64;102934.84;5027337;28;19917;-63
2023/04/04 00:27:23;;;;;;;;;;;;;;;2.38;64.63;102930.44;5024338;28;19932;-63
2023/04/04 00:29:48;;;;;;;;;;;;;;;2.36;64.63;102937.53;5026724;28;20375;-63
2023/04/04 00:32:15;;;;;;;;;;;;;;;2.33;64.55;102933.28;5026707;28;19917;-63
2023/04/04 00:34:40;;;;;;;;;;;;;;;2.29;64.77;102936.91;5026613;28;19921;-63
2023/04/04 00:37:06;;;;;;;;;;;;;;;2.27;64.94;102938.75;5017508;28;20371;-63
2023/04/04 00:39:32;;;;;;;;;;;;;;;2.26;64.96;102931.81;5023948;28;19913;-63
2023/04/04 00:41:57;;;;;;;;;;;;;;;2.26;64.83;102931.81;5023671;28;19913;-63
2023/04/04 00:44:22;;;;;;;;;;;;;;;2.25;65.06;102924.00;5026028;28;19968;-63
2023/04/04 00:46:47;;;;;;;;;;;;;;;2.23;65.01;102928.47;5021367;28;19921;-63
2023/04/04 00:49:12;;;;;;;;;;;;;;;2.19;65.10;102933.00;5026934;28;20542;-63
2023/04/04 00:51:37;;;;;;;;;;;;;;;2.18;65.16;102933.91;5014652;28;19928;-63
2023/04/04 00:54:03;;;;;;;;;;;;;;;2.16;65.35;102931.34;5020910;28;20321;-63
2023/04/04 00:56:29;;;;;;;;;;;;;;;2.15;65.27;102932.28;5028769;28;19913;-63
2023/04/04 00:58:55;;;;;;;;;;;;;;;2.14;65.30;102929.72;5024742;28;19917;-63
2023/04/04 01:01:20;;;;;;;;;;;;;;;2.12;65.34;102932.41;5024099;28;19924;-63
2023/04/04 01:03:45;;;;;;;;;;;;;;;2.12;65.04;102929.78;5022344;28;20326;-63
2023/04/04 01:06:10;;;;;;;;;;;;;;;2.12;64.79;102927.16;5025592;28;20390;-63
2023/04/04 01:08:39;;;;;;;;;;;;;;;2.14;64.32;102917.47;5021111;28;20323;-63
2023/04/04 01:11:05;;;;;;;;;;;;;;;2.17;64.52;102919.94;5025585;28;19925;-63
2023/04/04 01:13:30;;;;;;;;;;;;;;;2.18;64.37;102912.94;5022174;28;19918;-63
2023/04/04 01:15:56;;;;;;;;;;;;;;;2.20;64.08;102905.00;5023388;28;20421;-63
2023/04/04 01:18:22;;;;;;;;;;;;;;;2.21;63.97;102901.47;5021979;28;20362;-63
2023/04/04 01:21:01;;;;;;;;;;;;;;;2.17;63.80;102906.84;5024326;28;19921;-63
2023/04/04 01:23:49;;;;;;;;;;;;;;;2.14;63.70;102906.97;5025827;28;20542;-63
2023/04/04 01:26:15;;;;;;;;;;;;;;;2.11;63.78;102912.34;5018250;28;19920;-63
2023/04/04 01:28:40;;;;;;;;;;;;;;;2.09;63.82;102911.56;5027938;28;19917;-63
2023/04/04 01:31:09;;;;;;;;;;;;;;;2.08;63.97;102911.63;5025451;28;19933;-63
2023/04/04 01:33:42;;;;;;;;;;;;;;;2.10;63.90;102912.41;5025149;28;19917;-63
2023/04/04 01:36:15;;;;;;;;;;;;;;;2.09;64.10;102906.31;5025125;28;19917;-63
2023/04/04 01:38:41;;;;;;;;;;;;;;;2.10;64.07;102912.41;5022346;28;19924;-63
2023/04/04 01:41:07;;;;;;;;;;;;;;;2.12;64.16;102906.19;5027908;28;19933;-63
2023/04/04 01:43:33;;;;;;;;;;;;;;;2.11;64.37;102901.88;5020179;28;19929;-63
2023/04/04 01:45:58;;;;;;;;;;;;;;;2.09;64.49;102900.25;5021345;28;20378;-63
2023/04/04 01:48:23;;;;;;;;;;;;;;;2.06;64.84;102906.47;5025167;28;19971;-63
2023/04/04 01:50:48;;;;;;;;;;;;;;;2.01;65.20;102899.69;5027191;28;19979;-63
2023/04/04 01:53:14;;;;;;;;;;;;;;;1.95;65.19;102894.72;5025628;28;19975;-63
2023/04/04 01:55:39;;;;;;;;;;;;;;;1.91;65.16;102901.84;5027542;28;19935;-63
2023/04/04 01:58:04;;;;;;;;;;;;;;;1.88;65.01;102899.38;5021433;28;19967;-63
2023/04/04 02:00:29;;;;;;;;;;;;;;;1.84;65.11;102903.88;5027049;28;19921;-63
2023/04/04 02:02:54;;;;;;;;;;;;;;;1.80;65.27;102898.84;5027344;28;20007;-63
2023/04/04 02:05:20;;;;;;;;;;;;;;;1.77;65.45;102906.81;5028247;28;19917;-63
2023/04/04 02:07:51;;;;;;;;;;;;;;;1.74;65.67;102899.94;5021902;28;19917;-63
2023/04/04 02:10:16;;;;;;;;;;;;;;;1.73;65.56;102895.59;5029005;28;20012;-63
2023/04/04 02:12:41;;;;;;;;;;;;;;;1.72;65.56;102903.50;5027314;28;19932;-63
2023/04/04 02:15:07;;;;;;;;;;;;;;;1.69;65.44;102903.63;5024746;28;20362;-63
2023/04/04 02:17:33;;;;;;;;;;;;;;;1.69;65.37;102903.63;5027388;28;20053;-63
2023/04/04 02:19:58;;;;;;;;;;;;;;;1.68;65.63;102907.19;5024012;28;19945;-63
2023/04/04 02:22:24;;;;;;;;;;;;;;;1.68;65.77;102912.41;5026683;28;20452;-63
2023/04/04 02:24:49;;;;;;;;;;;;;;;1.67;65.77;102921.19;5021353;28;20430;-63
2023/04/04 02:27:14;;;;;;;;;;;;;;;1.64;65.73;102922.16;5023927;28;19925;-63
2023/04/04 02:29:39;;;;;;;;;;;;;;;1.61;65.94;102931.91;5025410;28;19932;-63
2023/04/04 02:32:05;;;;;;;;;;;;;;;1.59;65.94;102923.28;5028826;28;19918;-63
2023/04/04 02:34:30;;;;;;;;;;;;;;;1.54;66.16;102923.47;5024724;28;19974;-63
2023/04/04 02:36:55;;;;;;;;;;;;;;;1.51;66.39;102926.19;5027575;28;20459;-63
2023/04/04 02:39:20;;;;;;;;;;;;;;;1.49;66.55;102925.41;5024792;28;19917;-63
2023/04/04 02:41:46;;;;;;;;;;;;;;;1.47;66.48;102920.25;5023810;28;19996;-63
2023/04/04 02:44:11;;;;;;;;;;;;;;;1.47;66.38;102916.78;5025764;28;20429;-63
2023/04/04 02:46:36;;;;;;;;;;;;;;;1.45;66.52;102908.97;5034063;28;19939;-63
2023/04/04 02:49:02;;;;;;;;;;;;;;;1.41;66.48;102914.38;5020145;28;19921;-63
2023/04/04 02:51:27;;;;;;;;;;;;;;;1.41;66.54;102916.97;5024996;28;20314;-63
2023/04/04 02:53:52;;;;;;;;;;;;;;;1.37;66.64;102908.41;5021759;28;20434;-63
2023/04/04 02:56:18;;;;;;;;;;;;;;;1.35;66.65;102914.63;5021745;28;19925;-63
2023/04/04 02:58:43;;;;;;;;;;;;;;;1.32;66.81;102906.88;5018126;28;19921;-63
2023/04/04 03:01:08;;;;;;;;;;;;;;;1.29;66.85;102909.63;5022637;28;20002;-63
2023/04/04 03:03:33;;;;;;;;;;;;;;;1.23;66.86;102903.72;5021707;28;20302;-63
2023/04/04 03:05:59;;;;;;;;;;;;;;;1.21;67.12;102904.69;5027285;28;19914;-63
2023/04/04 03:08:24;;;;;;;;;;;;;;;1.17;67.28;102909.19;5021212;28;20154;-62
2023/04/04 03:10:49;;;;;;;;;;;;;;;1.15;67.46;102912.75;5022427;28;20429;-63
2023/04/04 03:13:14;;;;;;;;;;;;;;;1.12;67.50;102911.13;5021000;28;20450;-63
2023/04/04 03:15:39;;;;;;;;;;;;;;;1.10;67.57;102909.47;5022327;28;19916;-63
2023/04/04 03:18:05;;;;;;;;;;;;;;;1.05;67.62;102911.41;5025343;28;20347;-63
2023/04/04 03:20:30;;;;;;;;;;;;;;;1.02;67.70;102911.53;5023721;28;19928;-63
2023/04/04 03:22:56;;;;;;;;;;;;;;;1.00;67.61;102908.13;5022895;28;20015;-62
2023/04/04 03:25:21;;;;;;;;;;;;;;;0.96;67.69;102903.94;5022831;28;19924;-62
2023/04/04 03:27:47;;;;;;;;;;;;;;;0.89;67.46;102898.94;5028232;28;19924;-63
2023/04/04 03:30:12;;;;;;;;;;;;;;;0.89;67.26;102901.53;5030408;28;19924;-63
2023/04/04 03:32:38;;;;;;;;;;;;;;;0.91;67.32;102899.72;5031568;28;19986;-63
2023/04/04 03:35:03;;;;;;;;;;;;;;;0.95;67.59;102904.84;5028813;28;20382;-63
2023/04/04 03:37:29;;;;;;;;;;;;;;;0.97;67.42;102892.56;5031714;28;19939;-63
2023/04/04 03:39:54;;;;;;;;;;;;;;;0.99;67.33;102890.72;5017305;28;20347;-63
2023/04/04 03:42:19;;;;;;;;;;;;;;;0.99;67.52;102888.09;5028094;28;19932;-63
2023/04/04 03:44:45;;;;;;;;;;;;;;;0.98;67.29;102882.03;5029809;28;19912;-62
2023/04/04 03:47:10;;;;;;;;;;;;;;;0.99;67.28;102873.25;5028799;28;20307;-63
2023/04/04 03:49:35;;;;;;;;;;;;;;;1.00;67.36;102874.13;5024870;28;19917;-62
2023/04/04 03:52:02;;;;;;;;;;;;;;;0.96;67.86;102870.78;5021997;28;19921;-63
2023/04/04 03:54:27;;;;;;;;;;;;;;;0.96;67.99;102875.16;5029097;28;20051;-63
2023/04/04 03:56:53;;;;;;;;;;;;;;;0.97;67.88;102876.84;5026518;28;19995;-62
2023/04/04 03:59:18;;;;;;;;;;;;;;;0.98;67.81;102884.66;5023372;28;19921;-62
2023/04/04 04:01:43;;;;;;;;;;;;;;;0.99;67.75;102888.97;5030992;28;19913;-63
2023/04/04 04:04:08;;;;;;;;;;;;;;;0.97;67.78;102882.94;5029317;28;19952;-63
2023/04/04 04:06:33;;;;;;;;;;;;;;;0.93;67.63;102883.97;5029452;28;19917;-63
2023/04/04 04:08:58;;;;;;;;;;;;;;;0.91;67.70;102881.41;5031026;28;20014;-63
2023/04/04 04:11:24;;;;;;;;;;;;;;;0.89;67.71;102878.00;5029782;28;19913;-62
2023/04/04 04:13:49;;;;;;;;;;;;;;;0.88;67.76;102878.91;5029992;28;19987;-62
2023/04/04 04:16:14;;;;;;;;;;;;;;;0.84;67.80;102876.44;5020239;28;19917;-63
2023/04/04 04:18:40;;;;;;;;;;;;;;;0.83;67.85;102874.75;5026439;28;20012;-62
2023/04/04 04:21:05;;;;;;;;;;;;;;;0.82;67.98;102884.34;5012330;28;19987;-63
2023/04/04 04:23:30;;;;;;;;;;;;;;;0.81;67.99;102880.03;5023019;28;20008;-63
2023/04/04 04:25:56;;;;;;;;;;;;;;;0.80;68.05;102882.72;5022887;28;19913;-62
2023/04/04 04:28:22;;;;;;;;;;;;;;;0.78;68.33;102877.53;5024057;28;19921;-62
2023/04/04 04:30:48;;;;;;;;;;;;;;;0.79;68.30;102883.63;5024784;28;19968;-63
2023/04/04 04:33:13;;;;;;;;;;;;;;;0.77;68.31;102875.84;5028721;28;19955;-62
2023/04/04 04:35:41;;;;;;;;;;;;;;;0.76;68.21;102879.38;5027248;28;19917;-62
2023/04/04 04:38:06;;;;;;;;;;;;;;;0.76;68.10;102879.38;5030276;28;19921;-63
2023/04/04 04:40:32;;;;;;;;;;;;;;;0.74;68.03;102881.19;5022300;28;20342;-62
2023/04/04 04:42:57;;;;;;;;;;;;;;;0.72;68.31;102888.22;5022222;28;19917;-63
2023/04/04 04:45:22;;;;;;;;;;;;;;;0.70;68.51;102887.44;5025865;28;19913;-62
2023/04/04 04:47:48;;;;;;;;;;;;;;;0.68;68.56;102889.25;5030295;28;19964;-63
2023/04/04 04:50:13;;;;;;;;;;;;;;;0.68;68.55;102891.88;5018804;28;20427;-63
2023/04/04 04:52:38;;;;;;;;;;;;;;;0.66;68.71;102898.91;5025865;28;19998;-62
2023/04/04 04:55:04;;;;;;;;;;;;;;;0.63;68.69;102899.03;5027813;28;20375;-63
2023/04/04 04:57:29;;;;;;;;;;;;;;;0.61;68.67;102906.09;5028999;28;19925;-63
2023/04/04 04:59:54;;;;;;;;;;;;;;;0.57;68.80;102907.06;5024477;28;19917;-63
2023/04/04 05:02:20;;;;;;;;;;;;;;;0.47;69.01;102898.72;5022126;28;19928;-63
2023/04/04 05:04:45;;;;;;;;;;;;;;;0.53;69.07;102910.72;5015827;28;19921;-63
2023/04/04 05:07:11;;;;;;;;;;;;;;;0.53;68.96;102908.09;5030223;28;20017;-63
2023/04/04 05:09:36;;;;;;;;;;;;;;;0.53;69.00;102910.72;5021322;28;19948;-63
2023/04/04 05:12:02;;;;;;;;;;;;;;;0.51;68.86;102916.00;5023834;28;20553;-63
2023/04/04 05:14:27;;;;;;;;;;;;;;;0.49;68.93;102912.59;5025144;28;19948;-63
2023/04/04 05:16:52;;;;;;;;;;;;;;;0.47;69.02;102909.19;5028523;28;19914;-64
2023/04/04 05:19:17;;;;;;;;;;;;;;;0.47;69.09;102910.94;5027250;28;20015;-63
2023/04/04 05:21:42;;;;;;;;;;;;;;;0.47;69.23;102914.41;5021678;28;20008;-63
2023/04/04 05:24:08;;;;;;;;;;;;;;;0.48;69.54;102910.03;5025097;28;19943;-63
2023/04/04 05:26:33;;;;;;;;;;;;;;;0.50;69.68;102916.06;5025205;28;20375;-63
2023/04/04 05:28:59;;;;;;;;;;;;;;;0.51;69.80;102909.91;5021192;28;20011;-63
2023/04/04 05:31:25;;;;;;;;;;;;;;;0.53;70.29;102908.94;5021722;28;19917;-63
2023/04/04 05:33:51;;;;;;;;;;;;;;;0.53;70.29;102918.56;5020286;28;19940;-63
2023/04/04 05:36:16;;;;;;;;;;;;;;;0.56;70.40;102919.28;5027243;28;20333;-63
2023/04/04 05:38:41;;;;;;;;;;;;;;;0.59;70.54;102919.22;5024759;28;20002;-64
2023/04/04 05:41:06;;;;;;;;;;;;;;;0.64;70.69;102921.66;5024379;28;19917;-63
2023/04/04 05:43:31;;;;;;;;;;;;;;;0.70;70.96;102916.19;5023280;28;20022;-63
2023/04/04 05:45:56;;;;;;;;;;;;;;;0.78;71.49;102913.31;5027420;28;19949;-64
2023/04/04 05:48:22;;;;;;;;;;;;;;;0.85;71.90;102917.38;5023619;28;19917;-63
2023/04/04 05:50:47;;;;;;;;;;;;;;;0.93;71.99;102918.81;5027117;28;20454;-64
2023/04/04 05:53:12;;;;;;;;;;;;;;;1.00;72.11;102913.34;5020697;28;19924;-64
2023/04/04 05:55:37;;;;;;;;;;;;;;;1.07;72.55;102920.91;5020477;28;19921;-63
2023/04/04 05:58:02;;;;;;;;;;;;;;;1.17;72.55;102922.28;5021193;28;19956;-64
2023/04/04 06:00:28;;;;;;;;;;;;;;;1.27;72.80;102914.91;5026038;28;19960;-63
2023/04/04 06:02:56;;;;;;;;;;;;;;;1.41;72.90;102924.84;5032555;28;19948;-63
2023/04/04 06:05:21;;;;;;;;;;;;;;;1.54;72.68;102920.84;5024490;28;19928;-63
2023/04/04 06:07:46;;;;;;;;;;;;;;;1.64;72.82;102918.69;5022501;28;19936;-64
2023/04/04 06:10:11;;;;;;;;;;;;;;;1.74;72.65;102912.19;5026168;28;20414;-64
2023/04/04 06:12:37;;;;;;;;;;;;;;;1.82;72.60;102920.56;5023277;28;19921;-64
2023/04/04 06:15:02;;;;;;;;;;;;;;;1.91;72.66;102914.09;5026986;28;20338;-64
2023/04/04 06:17:27;;;;;;;;;;;;;;;2.00;72.78;102924.19;5022049;28;19937;-64
2023/04/04 06:19:54;;;;;;;;;;;;;;;2.11;72.90;102925.47;5021021;28;19917;-63
2023/04/04 06:22:20;;;;;;;;;;;;;;;2.26;73.04;102920.47;5021423;28;19920;-64
2023/04/04 06:24:45;;;;;;;;;;;;;;;2.44;72.92;102927.56;5027650;28;19917;-64
2023/04/04 06:27:10;;;;;;;;;;;;;;;2.65;72.97;102933.63;5021179;28;19914;-64
2023/04/04 06:29:36;;;;;;;;;;;;;;;2.82;72.87;102927.63;5019666;28;19925;-64
2023/04/04 06:32:01;;;;;;;;;;;;;;;3.01;72.69;102931.13;5016024;28;20453;-64
2023/04/04 06:34:27;;;;;;;;;;;;;;;3.12;72.31;102931.47;5024161;28;20455;-64
2023/04/04 06:36:52;;;;;;;;;;;;;;;3.23;72.28;102928.34;5022650;28;19921;-64
2023/04/04 06:39:17;;;;;;;;;;;;;;;3.33;71.90;102934.88;5016577;28;20336;-64
2023/04/04 06:41:42;;;;;;;;;;;;;;;3.47;72.12;102934.19;5022479;28;19921;-64
2023/04/04 06:44:07;;;;;;;;;;;;;;;3.62;71.74;102933.47;5020564;28;20317;-64
2023/04/04 06:46:35;;;;;;;;;;;;;;;3.80;71.47;102942.25;5020206;28;19936;-64
2023/04/04 06:49:00;;;;;;;;;;;;;;;4.00;71.16;102944.75;5027600;28;19956;-63
2023/04/04 06:51:26;;;;;;;;;;;;;;;4.13;70.56;102945.00;5021630;28;20355;-63
2023/04/04 06:53:51;;;;;;;;;;;;;;;4.21;70.18;102940.19;5015239;28;19917;-63
2023/04/04 06:56:16;;;;;;;;;;;;;;;4.25;69.45;102939.09;5026576;28;19920;-64
2023/04/04 06:58:41;;;;;;;;;;;;;;;4.25;68.95;102939.09;5030050;28;20283;-64
2023/04/04 07:01:07;;;;;;;;;;;;;;;4.25;68.24;102944.34;5031947;28;20044;-64
2023/04/04 07:03:32;;;;;;;;;;;;;;;4.29;67.56;102946.75;5028802;28;19928;-64
2023/04/04 07:05:57;;;;;;;;;;;;;;;4.27;67.23;102950.38;5026561;28;19982;-64
2023/04/04 07:08:22;;;;;;;;;;;;;;;4.26;66.52;102951.31;5026727;28;20374;-64
2023/04/04 07:10:48;;;;;;;;;;;;;;;4.26;66.47;102954.81;5026754;28;19921;-64
2023/04/04 07:13:13;;;;;;;;;;;;;;;4.30;66.59;102952.84;5029615;28;19921;-63
2023/04/04 07:15:38;;;;;;;;;;;;;;;4.33;66.39;102953.56;5028319;28;20012;-63
2023/04/04 07:18:03;;;;;;;;;;;;;;;4.40;66.41;102943.59;5024373;28;19952;-63
2023/04/04 07:20:29;;;;;;;;;;;;;;;4.47;66.24;102944.13;5025698;28;19917;-63
2023/04/04 07:22:54;;;;;;;;;;;;;;;4.61;65.79;102958.25;5025745;28;20358;-63
2023/04/04 07:25:19;;;;;;;;;;;;;;;4.66;65.62;102948.34;5032040;28;19917;-64
2023/04/04 07:27:45;;;;;;;;;;;;;;;4.71;65.31;102942.00;5021550;28;20364;-64
2023/04/04 07:30:10;;;;;;;;;;;;;;;4.78;64.63;102943.38;5021470;28;19963;-63
2023/04/04 07:32:37;;;;;;;;;;;;;;;4.82;63.88;102948.38;5024170;28;19918;-63
2023/04/04 07:35:03;;;;;;;;;;;;;;;4.91;64.07;102944.41;5027179;28;19921;-63
2023/04/04 07:37:29;;;;;;;;;;;;;;;4.93;63.05;102938.16;5031266;28;20421;-64
2023/04/04 07:39:54;;;;;;;;;;;;;;;5.09;63.47;102943.41;5027189;28;20374;-64
2023/04/04 07:42:22;;;;;;;;;;;;;;;5.31;63.57;102931.72;5026253;28;19925;-63
2023/04/04 07:44:50;;;;;;;;;;;;;;;5.49;62.90;102943.84;5026116;28;19914;-64
2023/04/04 07:47:16;;;;;;;;;;;;;;;5.62;62.22;102938.75;5027478;28;19924;-64
2023/04/04 07:49:41;;;;;;;;;;;;;;;5.76;61.98;102934.38;5028822;28;19967;-64
2023/04/04 07:52:07;;;;;;;;;;;;;;;5.90;61.60;102925.72;5024273;28;19914;-64
2023/04/04 07:54:33;;;;;;;;;;;;;;;6.03;61.51;102936.38;5026915;28;19992;-63
2023/04/04 07:56:58;;;;;;;;;;;;;;;6.11;60.96;102935.03;5025418;28;20000;-64
2023/04/04 07:59:23;;;;;;;;;;;;;;;6.22;60.37;102934.38;5028199;28;19964;-64
2023/04/04 08:01:48;;;;;;;;;;;;;;;6.34;59.88;102936.28;5025645;28;21389;-64
2023/04/04 08:04:13;;;;;;;;;;;;;;;6.47;58.90;102937.25;5029160;28;19948;-64
2023/04/04 08:06:39;;;;;;;;;;;;;;;6.59;58.73;102938.28;5014490;28;20354;-64
2023/04/04 08:09:04;;;;;;;;;;;;;;;6.67;58.70;102938.69;5023983;28;19917;-64
2023/04/04 08:11:29;;;;;;;;;;;;;;;6.63;57.20;102936.31;5027834;28;19917;-64
2023/04/04 08:13:56;;;;;;;;;;;;;;;6.61;57.06;102939.03;5026855;28;21135;-64
2023/04/04 08:16:22;;;;;;;;;;;;;;;6.64;56.57;102938.00;5024425;28;19913;-64
2023/04/04 08:18:47;;;;;;;;;;;;;;;6.62;57.08;102937.25;5029500;28;19921;-64
2023/04/04 08:21:12;;;;;;;;;;;;;;;6.56;56.04;102935.00;5026316;28;20375;-64
2023/04/04 08:23:38;;;;;;;;;;;;;;;6.64;56.04;102936.22;5025465;28;20051;-64
2023/04/04 08:26:03;;;;;;;;;;;;;;;6.75;55.54;102938.22;5025827;28;19960;-64
2023/04/04 08:28:28;;;;;;;;;;;;;;;6.84;55.12;102938.50;5025121;28;19921;-64
2023/04/04 08:30:54;;;;;;;;;;;;;;;6.92;55.23;102934.50;5024843;28;19920;-64
2023/04/04 08:33:20;;;;;;;;;;;;;;;7.01;54.58;102932.16;5024940;28;20421;-64
2023/04/04 08:35:45;;;;;;;;;;;;;;;7.06;54.35;102930.09;5026193;28;19924;-64
2023/04/04 08:38:10;;;;;;;;;;;;;;;7.06;54.88;102927.44;5028069;28;20378;-64
2023/04/04 08:40:37;;;;;;;;;;;;;;;6.93;54.72;102930.94;5025715;28;19923;-64
2023/04/04 08:43:03;;;;;;;;;;;;;;;6.89;54.39;102927.63;5019828;28;20015;-64
2023/04/04 08:45:29;;;;;;;;;;;;;;;7.00;53.56;102930.47;5014462;28;19913;-64
2023/04/04 08:47:57;;;;;;;;;;;;;;;7.10;52.51;102915.72;5029786;28;19940;-64
2023/04/04 08:50:24;;;;;;;;;;;;;;;7.19;51.99;102918.72;5030785;28;19955;-64
2023/04/04 08:52:49;;;;;;;;;;;;;;;7.23;51.67;102917.59;5027237;28;19940;-64
2023/04/04 08:55:14;;;;;;;;;;;;;;;7.31;51.25;102920.59;5024745;28;19940;-64
2023/04/04 08:57:40;;;;;;;;;;;;;;;7.38;50.86;102920.09;5023244;28;19917;-64
2023/04/04 09:00:07;;;;;;;;;;;;;;;7.37;50.83;102918.41;5022418;28;19980;-64
2023/04/04 09:02:45;;;;;;;;;;;;;;;7.43;50.88;102919.81;5024693;28;20436;-64
2023/04/04 09:05:12;;;;;;;;;;;;;;;7.58;50.80;102920.63;5021748;28;19928;-64
2023/04/04 09:07:37;;;;;;;;;;;;;;;7.65;49.94;102925.41;5022740;28;19921;-64
2023/04/04 09:10:03;;;;;;;;;;;;;;;7.70;50.23;102919.81;5024430;28;20259;-64
2023/04/04 09:12:30;;;;;;;;;;;;;;;7.70;50.14;102914.50;5023627;28;19924;-64
2023/04/04 09:14:56;;;;;;;;;;;;;;;7.72;49.71;102908.19;5022668;28;19917;-64
2023/04/04 09:17:21;;;;;;;;;;;;;;;7.67;48.82;102920.84;5027824;28;20096;-64
2023/04/04 09:19:46;;;;;;;;;;;;;;;7.68;48.84;102927.00;5025077;28;20409;-64
2023/04/04 09:22:14;;;;;;;;;;;;;;;7.59;48.64;102922.31;5026075;28;19921;-64
2023/04/04 09:24:40;;;;;;;;;;;;;;;7.60;48.19;102924.84;5027230;28;19947;-64
2023/04/04 09:27:09;;;;;;;;;;;;;;;7.67;47.94;102923.50;5024353;28;19917;-64
2023/04/04 09:29:36;;;;;;;;;;;;;;;7.75;48.07;102912.41;5029024;28;20430;-64
2023/04/04 09:32:01;;;;;;;;;;;;;;;7.96;47.99;102918.94;5021534;28;19921;-64
2023/04/04 09:34:27;;;;;;;;;;;;;;;8.14;47.83;102918.66;5019258;28;19917;-64
2023/04/04 09:36:52;;;;;;;;;;;;;;;8.32;47.48;102912.94;5025103;28;19926;-64
2023/04/04 09:39:19;;;;;;;;;;;;;;;8.47;47.68;102911.09;5023863;28;19967;-64
2023/04/04 09:41:44;;;;;;;;;;;;;;;8.68;47.42;102914.91;5025867;28;19917;-64
2023/04/04 09:44:11;;;;;;;;;;;;;;;8.84;46.61;102908.50;5015411;28;19921;-64
2023/04/04 09:46:37;;;;;;;;;;;;;;;8.91;46.20;102896.50;5023720;28;19921;-64
2023/04/04 09:49:03;;;;;;;;;;;;;;;8.95;45.47;102906.78;5021879;28;19917;-64
2023/04/04 09:51:35;;;;;;;;;;;;;;;9.03;45.17;102902.75;5022081;28;19964;-64
2023/04/04 09:54:00;;;;;;;;;;;;;;;9.14;45.59;102905.47;5018708;28;19917;-64
2023/04/04 09:56:26;;;;;;;;;;;;;;;9.23;44.75;102903.00;5018248;28;20441;-64
2023/04/04 09:58:51;;;;;;;;;;;;;;;9.32;44.58;102905.00;5022477;28;20566;-64
2023/04/04 10:01:16;;;;;;;;;;;;;;;9.42;44.36;102901.66;5023807;28;19928;-64
2023/04/04 10:03:42;;;;;;;;;;;;;;;9.52;44.33;102908.81;5017994;28;20455;-64
2023/04/04 10:06:11;;;;;;;;;;;;;;;9.59;43.62;102901.28;5023827;28;20402;-64
2023/04/04 10:08:40;;;;;;;;;;;;;;;9.69;44.12;102901.44;5025912;28;19917;-64
2023/04/04 10:11:05;;;;;;;;;;;;;;;9.78;43.85;102896.28;5022210;28;20008;-64
2023/04/04 10:13:32;;;;;;;;;;;;;;;9.87;43.77;102900.91;5021829;28;20027;-64
2023/04/04 10:15:58;;;;;;;;;;;;;;;9.93;42.95;102903.09;5011292;28;20004;-64
2023/04/04 10:18:25;;;;;;;;;;;;;;;10.06;43.04;102892.38;5024175;28;19917;-64
2023/04/04 10:20:51;;;;;;;;;;;;;;;10.06;42.71;102887.06;5020125;28;19932;-64
2023/04/04 10:23:18;;;;;;;;;;;;;;;10.13;43.07;102893.63;5020004;28;19925;-64
2023/04/04 10:25:44;;;;;;;;;;;;;;;10.09;42.72;102886.84;5022807;28;19920;-64
2023/04/04 10:28:09;;;;;;;;;;;;;;;10.05;42.54;102892.50;5021193;28;19921;-64
2023/04/04 10:30:39;;;;;;;;;;;;;;;9.99;42.87;102885.00;5020440;28;19920;-64
2023/04/04 10:33:14;;;;;;;;;;;;;;;9.99;41.78;102883.19;5021554;28;20336;-64
2023/04/04 10:35:39;;;;;;;;;;;;;;;9.83;41.90;102878.22;5021610;28;19992;-64
2023/04/04 10:38:05;;;;;;;;;;;;;;;9.88;42.85;102876.06;5028971;28;20334;-64
2023/04/04 10:40:34;;;;;;;;;;;;;;;9.98;42.58;102880.66;5023180;28;19942;-64
2023/04/04 10:43:02;;;;;;;;;;;;;;;9.97;42.27;102882.47;5020751;28;19918;-64
2023/04/04 10:45:28;;;;;;;;;;;;;;;9.89;42.36;102880.41;5013441;28;19968;-64
2023/04/04 10:47:53;;;;;;;;;;;;;;;9.95;42.54;102879.09;5027647;28;19960;-64
2023/04/04 10:50:19;;;;;;;;;;;;;;;10.06;42.65;102872.97;5015569;28;19921;-64
2023/04/04 10:52:44;;;;;;;;;;;;;;;10.26;42.67;102866.16;5008641;28;19968;-64
2023/04/04 10:55:13;;;;;;;;;;;;;;;10.22;42.48;102850.47;5018583;28;20499;-64
2023/04/04 10:57:51;;;;;;;;;;;;;;;10.25;42.36;102862.66;5014484;28;19918;-64
2023/04/04 11:00:17;;;;;;;;;;;;;;;10.25;42.18;102862.66;5024025;28;19921;-64
2023/04/04 11:02:51;;;;;;;;;;;;;;;10.25;41.73;102857.34;5022510;28;20397;-65
2023/04/04 11:05:21;;;;;;;;;;;;;;;10.20;41.82;102848.88;5012130;28;19917;-64
2023/04/04 11:07:47;;;;;;;;;;;;;;;10.00;41.67;102852.19;5013377;28;20386;-65
2023/04/04 11:10:15;;;;;;;;;;;;;;;9.97;41.98;102850.63;5023690;28;19924;-65
2023/04/04 11:12:44;;;;;;;;;;;;;;;9.97;41.12;102845.31;5020939;28;19918;-64
2023/04/04 11:15:10;;;;;;;;;;;;;;;10.00;41.34;102846.88;5020124;28;19917;-64
2023/04/04 11:17:47;;;;;;;;;;;;;;;10.06;41.34;102847.25;5014550;28;20395;-64
2023/04/04 11:20:16;;;;;;;;;;;;;;;10.17;41.48;102834.03;5016425;28;20476;-64
2023/04/04 11:22:42;;;;;;;;;;;;;;;10.15;40.87;102835.09;5018714;28;20198;-65
2023/04/04 11:25:23;;;;;;;;;;;;;;;10.17;41.46;102841.13;5024892;28;19932;-65
2023/04/04 11:27:50;;;;;;;;;;;;;;;10.11;41.48;102829.16;5025024;28;20406;-65
2023/04/04 11:30:15;;;;;;;;;;;;;;;10.26;42.34;102831.63;5022744;28;19918;-65
2023/04/04 11:32:43;;;;;;;;;;;;;;;10.44;42.19;102835.53;5023853;28;20413;-65
2023/04/04 11:35:08;;;;;;;;;;;;;;;10.58;42.25;102827.28;5020962;28;19952;-65
2023/04/04 11:37:41;;;;;;;;;;;;;;;10.71;42.10;102833.34;5023283;28;19965;-65
2023/04/04 11:40:11;;;;;;;;;;;;;;;10.93;41.56;102828.94;5026776;28;19917;-65
2023/04/04 11:42:38;;;;;;;;;;;;;;;11.03;41.69;102824.56;5027868;28;19924;-65
2023/04/04 11:45:05;;;;;;;;;;;;;;;11.05;40.65;102826.13;5029507;28;19917;-65
2023/04/04 11:47:31;;;;;;;;;;;;;;;11.06;40.67;102822.50;5027150;28;20387;-65
2023/04/04 11:49:57;;;;;;;;;;;;;;;10.91;40.95;102817.56;5028476;28;19920;-65
2023/04/04 11:52:24;;;;;;;;;;;;;;;10.98;41.83;102814.28;5022876;28;20352;-65
2023/04/04 11:54:49;;;;;;;;;;;;;;;10.97;41.41;102814.41;5025227;28;19921;-65
2023/04/04 11:57:16;;;;;;;;;;;;;;;11.07;41.11;102810.91;5025560;28;20311;-65
2023/04/04 11:59:42;;;;;;;;;;;;;;;11.13;40.91;102809.53;5028479;28;19920;-65
2023/04/04 12:02:08;;;;;;;;;;;;;;;11.00;41.64;102812.38;5028718;28;20474;-65
2023/04/04 12:04:34;;;;;;;;;;;;;;;10.74;40.04;102805.66;5025292;28;20035;-65
2023/04/04 12:07:00;;;;;;;;;;;;;;;10.65;40.54;102804.56;5026944;28;20011;-65
2023/04/04 12:09:27;;;;;;;;;;;;;;;10.69;40.63;102807.81;5027204;28;20306;-65
2023/04/04 12:11:53;;;;;;;;;;;;;;;10.83;40.86;102791.63;5017916;28;19928;-65
2023/04/04 12:14:19;;;;;;;;;;;;;;;10.95;40.90;102797.75;5026465;28;19956;-65
2023/04/04 12:16:48;;;;;;;;;;;;;;;10.91;40.41;102791.84;5021716;28;19917;-65
2023/04/04 12:19:13;;;;;;;;;;;;;;;11.00;41.03;102780.47;5027759;28;19975;-65
2023/04/04 12:21:39;;;;;;;;;;;;;;;10.99;41.12;102783.25;5024515;28;19917;-65
2023/04/04 12:24:05;;;;;;;;;;;;;;;10.99;40.52;102784.09;5020728;28;20278;-65
2023/04/04 12:26:31;;;;;;;;;;;;;;;11.15;40.36;102783.66;5017261;28;19913;-65
2023/04/04 12:28:57;;;;;;;;;;;;;;;11.33;40.05;102781.31;5015745;28;19917;-65
2023/04/04 12:31:23;;;;;;;;;;;;;;;11.49;40.04;102777.22;5029975;28;19957;-65
2023/04/04 12:33:50;;;;;;;;;;;;;;;11.69;40.51;102774.69;5016445;28;19928;-65
2023/04/04 12:36:15;;;;;;;;;;;;;;;11.84;40.31;102770.75;5026701;28;19925;-65
2023/04/04 12:38:57;;;;;;;;;;;;;;;11.96;39.06;102766.22;5022444;28;20306;-65